createdAt,value
2018-10-06T00:00:30.992Z,81.66
2018-10-06T00:01:08.957Z,82.89
2018-10-06T00:01:46.896Z,82.94
2018-10-06T00:02:24.683Z,81.70
2018-10-06T00:03:02.475Z,82.12
2018-10-06T00:03:40.216Z,82.77
2018-10-06T00:04:18.021Z,82.51
2018-10-06T00:04:55.940Z,82.04
2018-10-06T00:05:33.723Z,81.74
2018-10-06T00:06:11.705Z,81.70
2018-10-06T00:06:49.615Z,82.06
2018-10-06T00:07:29.577Z,81.65
2018-10-06T00:08:07.408Z,82.76
2018-10-06T00:08:46.098Z,82.37
2018-10-06T00:09:23.908Z,81.70
2018-10-06T00:10:01.687Z,82.39
2018-10-06T00:10:39.787Z,81.59
2018-10-06T00:11:18.289Z,81.94
2018-10-06T00:11:56.163Z,81.54
2018-10-06T00:12:34.029Z,81.76
2018-10-06T00:13:11.884Z,81.59
2018-10-06T00:13:49.772Z,82.21
2018-10-06T00:14:27.671Z,82.52
2018-10-06T00:15:05.514Z,82.29
2018-10-06T00:15:43.342Z,82.04
2018-10-06T00:16:21.462Z,81.43
2018-10-06T00:16:59.390Z,81.04
2018-10-06T00:17:37.395Z,81.98
2018-10-06T00:18:15.519Z,81.71
2018-10-06T00:18:53.504Z,81.76
2018-10-06T00:19:31.333Z,81.38
2018-10-06T00:20:10.158Z,81.41
2018-10-06T00:20:48.293Z,81.54
2018-10-06T00:21:26.274Z,82.17
2018-10-06T00:22:04.170Z,81.54
2018-10-06T00:22:41.952Z,82.07
2018-10-06T00:23:20.575Z,82.43
2018-10-06T00:23:58.425Z,82.48
2018-10-06T00:24:36.425Z,81.35
2018-10-06T00:25:14.422Z,82.11
2018-10-06T00:25:52.242Z,81.36
2018-10-06T00:26:30.209Z,81.39
2018-10-06T00:27:22.156Z,81.74
2018-10-06T00:28:00.136Z,81.53
2018-10-06T00:28:38.037Z,81.15
2018-10-06T00:29:15.827Z,81.24
2018-10-06T00:29:53.709Z,81.06
2018-10-06T00:30:31.572Z,80.04
2018-10-06T00:31:09.396Z,81.23
2018-10-06T00:31:47.284Z,80.89
2018-10-06T00:32:25.204Z,81.46
2018-10-06T00:33:03.109Z,80.57
2018-10-06T00:33:40.935Z,80.52
2018-10-06T00:34:18.846Z,80.32
2018-10-06T00:34:56.595Z,80.63
2018-10-06T00:35:34.517Z,80.87
2018-10-06T00:36:12.350Z,79.75
2018-10-06T00:36:50.237Z,79.56
2018-10-06T00:37:28.952Z,79.33
2018-10-06T00:38:06.756Z,80.46
2018-10-06T00:38:44.548Z,80.19
2018-10-06T00:39:22.376Z,80.71
2018-10-06T00:40:00.141Z,80.22
2018-10-06T00:40:38.112Z,80.30
2018-10-06T00:41:16.001Z,80.33
2018-10-06T00:41:54.176Z,80.19
2018-10-06T00:42:32.069Z,79.09
2018-10-06T00:43:09.886Z,80.32
2018-10-06T00:43:47.752Z,79.79
2018-10-06T00:44:26.453Z,79.40
2018-10-06T00:45:04.267Z,80.46
2018-10-06T00:45:42.452Z,79.33
2018-10-06T00:46:20.303Z,79.46
2018-10-06T00:46:58.732Z,80.19
2018-10-06T00:47:36.532Z,79.64
2018-10-06T00:48:14.313Z,79.26
2018-10-06T00:48:52.127Z,79.19
2018-10-06T00:49:30.187Z,80.14
2018-10-06T00:50:08.170Z,78.59
2018-10-06T00:50:46.242Z,78.86
2018-10-06T00:51:24.191Z,78.64
2018-10-06T00:52:02.246Z,78.70
2018-10-06T00:52:40.094Z,80.11
2018-10-06T00:53:17.938Z,80.15
2018-10-06T00:53:55.834Z,80.25
2018-10-06T00:54:33.735Z,80.08
2018-10-06T00:55:11.592Z,79.32
2018-10-06T00:55:49.556Z,79.58
2018-10-06T00:56:27.555Z,80.49
2018-10-06T00:57:05.544Z,79.68
2018-10-06T00:57:43.429Z,80.00
2018-10-06T00:58:21.209Z,80.32
2018-10-06T00:58:59.078Z,79.39
2018-10-06T00:59:37.105Z,80.21
2018-10-06T01:00:16.038Z,79.81
2018-10-06T01:00:54.889Z,79.96
2018-10-06T01:01:32.787Z,80.43
2018-10-06T01:02:10.625Z,80.64
2018-10-06T01:02:48.598Z,80.75
2018-10-06T01:03:26.454Z,79.43
2018-10-06T01:04:04.323Z,80.14
2018-10-06T01:04:42.207Z,79.84
2018-10-06T01:05:20.044Z,79.78
2018-10-06T01:05:58.029Z,79.34
2018-10-06T01:06:35.907Z,79.57
2018-10-06T01:07:13.910Z,80.03
2018-10-06T01:07:51.861Z,80.04
2018-10-06T01:08:29.785Z,78.76
2018-10-06T01:09:08.949Z,79.46
2018-10-06T01:09:46.913Z,79.72
2018-10-06T01:10:24.795Z,79.37
2018-10-06T01:11:02.643Z,78.94
2018-10-06T01:11:40.595Z,79.23
2018-10-06T01:12:18.444Z,79.15
2018-10-06T01:12:57.575Z,78.41
2018-10-06T01:13:35.449Z,78.98
2018-10-06T01:14:13.334Z,77.79
2018-10-06T01:14:51.296Z,78.36
2018-10-06T01:15:29.296Z,78.20
2018-10-06T01:16:07.191Z,78.72
2018-10-06T01:16:46.021Z,78.37
2018-10-06T01:17:24.006Z,77.96
2018-10-06T01:18:01.838Z,77.83
2018-10-06T01:18:39.698Z,78.46
2018-10-06T01:19:17.495Z,78.65
2018-10-06T01:19:55.416Z,78.12
2018-10-06T01:20:34.267Z,77.59
2018-10-06T01:21:12.412Z,78.15
2018-10-06T01:21:50.333Z,77.09
2018-10-06T01:22:29.155Z,78.03
2018-10-06T01:23:06.985Z,77.04
2018-10-06T01:23:44.817Z,77.93
2018-10-06T01:24:22.673Z,77.86
2018-10-06T01:25:00.660Z,77.75
2018-10-06T01:25:38.705Z,77.35
2018-10-06T01:26:17.367Z,78.04
2018-10-06T01:26:55.253Z,77.46
2018-10-06T01:27:33.233Z,77.50
2018-10-06T01:28:11.133Z,77.73
2018-10-06T01:28:49.054Z,77.02
2018-10-06T01:29:27.276Z,77.07
2018-10-06T01:30:05.293Z,78.02
2018-10-06T01:30:43.455Z,77.38
2018-10-06T01:31:21.693Z,76.99
2018-10-06T01:31:59.545Z,76.87
2018-10-06T01:32:37.619Z,75.91
2018-10-06T01:33:15.535Z,76.70
2018-10-06T01:33:53.444Z,76.34
2018-10-06T01:34:31.388Z,76.35
2018-10-06T01:35:09.357Z,75.88
2018-10-06T01:35:47.292Z,75.61
2018-10-06T01:36:25.213Z,75.03
2018-10-06T01:37:03.435Z,76.18
2018-10-06T01:37:41.211Z,75.43
2018-10-06T01:38:19.134Z,75.52
2018-10-06T01:38:57.105Z,74.76
2018-10-06T01:39:35.005Z,75.49
2018-10-06T01:40:12.904Z,75.47
2018-10-06T01:40:50.828Z,74.97
2018-10-06T01:41:28.653Z,74.72
2018-10-06T01:42:06.482Z,74.71
2018-10-06T01:42:44.383Z,74.03
2018-10-06T01:43:22.263Z,74.84
2018-10-06T01:44:00.244Z,74.71
2018-10-06T01:44:38.199Z,74.90
2018-10-06T01:45:16.330Z,75.44
2018-10-06T01:45:54.149Z,75.06
2018-10-06T01:46:32.163Z,75.35
2018-10-06T01:47:10.949Z,74.81
2018-10-06T01:47:48.801Z,74.78
2018-10-06T01:48:26.694Z,74.66
2018-10-06T01:49:04.482Z,74.57
2018-10-06T01:49:42.736Z,74.75
2018-10-06T01:50:20.819Z,74.94
2018-10-06T01:50:58.801Z,74.91
2018-10-06T01:51:36.737Z,74.88
2018-10-06T01:52:14.686Z,74.95
2018-10-06T01:52:52.633Z,74.97
2018-10-06T01:53:30.690Z,74.68
2018-10-06T01:54:08.504Z,74.27
2018-10-06T01:54:46.287Z,73.90
2018-10-06T01:55:24.888Z,73.53
2018-10-06T01:56:02.859Z,73.04
2018-10-06T01:56:40.804Z,72.97
2018-10-06T01:57:18.759Z,72.49
2018-10-06T01:57:56.639Z,72.33
2018-10-06T01:58:34.434Z,72.09
2018-10-06T01:59:12.343Z,72.42
2018-10-06T01:59:50.216Z,72.39
2018-10-06T02:00:28.851Z,72.32
2018-10-06T02:01:06.676Z,72.18
2018-10-06T02:01:44.617Z,71.83
2018-10-06T02:02:22.525Z,71.55
2018-10-06T02:03:00.422Z,71.51
2018-10-06T02:03:44.372Z,71.37
2018-10-06T02:04:25.972Z,71.37
2018-10-06T02:05:03.884Z,71.60
2018-10-06T02:05:41.769Z,71.50
2018-10-06T02:06:19.648Z,71.37
2018-10-06T02:06:58.587Z,71.29
2018-10-06T02:07:36.468Z,71.36
2018-10-06T02:08:14.448Z,71.30
2018-10-06T02:08:52.470Z,71.25
2018-10-06T02:09:34.621Z,71.47
2018-10-06T02:10:12.492Z,71.07
2018-10-06T02:10:50.386Z,71.49
2018-10-06T02:11:28.280Z,71.55
2018-10-06T02:12:06.112Z,71.61
2018-10-06T02:12:44.348Z,71.70
2018-10-06T02:13:22.439Z,72.07
2018-10-06T02:14:00.270Z,72.35
2018-10-06T02:14:38.402Z,71.83
2018-10-06T02:15:16.509Z,72.12
2018-10-06T02:15:54.325Z,72.06
2018-10-06T02:16:32.252Z,71.90
2018-10-06T02:17:11.196Z,71.69
2018-10-06T02:17:49.064Z,71.90
2018-10-06T02:18:27.296Z,71.36
2018-10-06T02:19:05.238Z,71.37
2018-10-06T02:19:43.061Z,71.14
2018-10-06T02:20:20.895Z,70.84
2018-10-06T02:20:58.786Z,71.07
2018-10-06T02:21:36.576Z,71.01
2018-10-06T02:22:14.522Z,70.46
2018-10-06T02:22:52.382Z,69.85
2018-10-06T02:23:30.352Z,69.57
2018-10-06T02:24:08.169Z,69.49
2018-10-06T02:24:46.086Z,69.56
2018-10-06T02:25:24.193Z,68.93
2018-10-06T02:26:02.267Z,68.68
2018-10-06T02:26:40.170Z,69.14
2018-10-06T02:27:18.086Z,68.34
2018-10-06T02:27:55.915Z,68.16
2018-10-06T02:28:33.814Z,68.27
2018-10-06T02:29:11.673Z,68.55
2018-10-06T02:29:49.592Z,68.29
2018-10-06T02:30:27.486Z,68.30
2018-10-06T02:31:05.339Z,68.40
2018-10-06T02:31:43.265Z,68.63
2018-10-06T02:32:21.193Z,68.57
2018-10-06T02:32:59.069Z,68.62
2018-10-06T02:33:36.950Z,68.81
2018-10-06T02:34:16.550Z,69.04
2018-10-06T02:34:54.525Z,68.99
2018-10-06T02:35:32.728Z,69.25
2018-10-06T02:36:10.670Z,69.52
2018-10-06T02:36:54.541Z,69.89
2018-10-06T02:37:32.429Z,69.97
2018-10-06T02:38:10.315Z,70.02
2018-10-06T02:38:48.125Z,69.85
2018-10-06T02:39:25.975Z,69.42
2018-10-06T02:40:03.897Z,68.92
2018-10-06T02:40:41.707Z,69.73
2018-10-06T02:41:19.667Z,69.27
2018-10-06T02:41:57.621Z,69.23
2018-10-06T02:42:36.338Z,69.13
2018-10-06T02:43:14.181Z,69.03
2018-10-06T02:43:51.949Z,69.27
2018-10-06T02:44:29.719Z,69.54
2018-10-06T02:45:07.645Z,68.93
2018-10-06T02:45:45.556Z,68.76
2018-10-06T02:46:23.461Z,68.37
2018-10-06T02:47:01.385Z,68.19
2018-10-06T02:47:39.377Z,67.64
2018-10-06T02:48:17.205Z,67.65
2018-10-06T02:48:55.017Z,67.22
2018-10-06T02:49:32.925Z,67.06
2018-10-06T02:50:10.815Z,66.40
2018-10-06T02:50:48.713Z,65.57
2018-10-06T02:51:26.670Z,66.08
2018-10-06T02:52:04.586Z,65.24
2018-10-06T02:52:44.120Z,64.71
2018-10-06T02:53:21.950Z,65.01
2018-10-06T02:55:08.276Z,64.67
2018-10-06T02:55:46.074Z,65.01
2018-10-06T02:56:23.875Z,64.17
2018-10-06T02:57:01.713Z,65.57
2018-10-06T02:57:39.700Z,64.45
2018-10-06T02:58:17.651Z,65.21
2018-10-06T02:58:55.533Z,64.55
2018-10-06T02:59:33.635Z,64.77
2018-10-06T03:00:11.484Z,64.35
2018-10-06T03:00:49.225Z,64.54
2018-10-06T03:01:27.068Z,65.22
2018-10-06T03:02:04.875Z,65.60
2018-10-06T03:02:42.670Z,64.03
2018-10-06T03:03:20.625Z,64.26
2018-10-06T03:03:58.548Z,64.11
2018-10-06T03:04:36.692Z,63.67
2018-10-06T03:05:14.857Z,63.66
2018-10-06T03:05:53.958Z,63.32
2018-10-06T03:06:31.916Z,62.55
2018-10-06T03:07:10.062Z,61.59
2018-10-06T03:07:48.044Z,61.85
2018-10-06T03:08:26.335Z,62.75
2018-10-06T03:09:04.771Z,60.94
2018-10-06T03:09:42.715Z,61.27
2018-10-06T03:10:20.715Z,61.26
2018-10-06T03:10:59.926Z,60.88
2018-10-06T03:11:38.073Z,60.13
2018-10-06T03:12:17.348Z,60.42
2018-10-06T03:12:55.444Z,59.24
2018-10-06T03:13:33.309Z,59.51
2018-10-06T03:14:11.213Z,59.32
2018-10-06T03:14:49.100Z,59.73
2018-10-06T03:15:27.020Z,59.42
2018-10-06T03:16:04.923Z,58.86
2018-10-06T03:16:42.861Z,57.89
2018-10-06T03:17:20.879Z,57.83
2018-10-06T03:17:58.747Z,58.35
2018-10-06T03:18:36.640Z,57.69
2018-10-06T03:19:14.386Z,57.60
2018-10-06T03:19:52.379Z,57.46
2018-10-06T03:20:31.491Z,57.51
2018-10-06T03:21:10.125Z,57.46
2018-10-06T03:21:49.438Z,57.34
2018-10-06T03:22:27.354Z,56.88
2018-10-06T03:23:06.178Z,56.47
2018-10-06T03:23:44.027Z,56.57
2018-10-06T03:24:22.023Z,56.48
2018-10-06T03:24:59.999Z,55.88
2018-10-06T03:25:37.829Z,56.16
2018-10-06T03:26:16.688Z,55.96
2018-10-06T03:26:54.593Z,55.89
2018-10-06T03:27:32.414Z,56.69
2018-10-06T03:28:10.659Z,56.72
2018-10-06T03:28:48.593Z,57.44
2018-10-06T03:29:26.477Z,58.19
2018-10-06T03:30:04.416Z,57.47
2018-10-06T03:30:42.472Z,57.83
2018-10-06T03:31:20.452Z,58.86
2018-10-06T03:31:58.240Z,58.09
2018-10-06T03:32:36.305Z,58.90
2018-10-06T03:33:14.097Z,58.41
2018-10-06T03:33:52.737Z,59.51
2018-10-06T03:34:30.646Z,59.39
2018-10-06T03:35:08.920Z,60.25
2018-10-06T03:35:49.056Z,60.63
2018-10-06T03:36:28.133Z,60.87
2018-10-06T03:37:05.919Z,61.10
2018-10-06T03:37:43.706Z,60.71
2018-10-06T03:38:21.556Z,60.57
2018-10-06T03:38:59.452Z,61.07
2018-10-06T03:39:37.350Z,60.56
2018-10-06T03:40:15.134Z,60.21
2018-10-06T03:40:53.011Z,59.85
2018-10-06T03:41:30.841Z,60.34
2018-10-06T03:42:08.664Z,60.24
2018-10-06T03:42:46.505Z,61.14
2018-10-06T03:43:24.362Z,60.89
2018-10-06T03:44:02.317Z,59.94
2018-10-06T03:44:40.232Z,59.19
2018-10-06T03:45:18.224Z,59.19
2018-10-06T03:45:56.267Z,58.58
2018-10-06T03:46:34.129Z,59.13
2018-10-06T03:47:12.008Z,58.97
2018-10-06T03:47:49.844Z,59.19
2018-10-06T03:48:27.665Z,58.83
2018-10-06T03:49:05.624Z,58.10
2018-10-06T03:49:43.423Z,57.96
2018-10-06T03:50:21.343Z,58.86
2018-10-06T03:50:59.111Z,57.71
2018-10-06T03:51:36.984Z,57.70
2018-10-06T03:52:14.901Z,56.74
2018-10-06T03:52:52.688Z,56.43
2018-10-06T03:53:30.600Z,56.10
2018-10-06T03:54:08.913Z,56.77
2018-10-06T03:54:46.912Z,55.70
2018-10-06T03:55:25.782Z,56.31
2018-10-06T03:56:03.773Z,56.24
2018-10-06T03:56:42.242Z,56.24
2018-10-06T03:57:20.230Z,57.20
2018-10-06T03:57:58.016Z,57.08
2018-10-06T03:58:35.957Z,56.53
2018-10-06T03:59:14.367Z,55.65
2018-10-06T03:59:52.230Z,55.85
2018-10-06T04:00:30.305Z,55.07
2018-10-06T04:01:08.102Z,54.12
2018-10-06T04:01:45.897Z,54.74
2018-10-06T04:02:23.765Z,54.80
2018-10-06T04:03:01.578Z,55.00
2018-10-06T04:03:39.483Z,55.04
2018-10-06T04:04:17.434Z,55.51
2018-10-06T04:04:55.251Z,55.98
2018-10-06T04:05:33.094Z,55.12
2018-10-06T04:06:10.875Z,55.25
2018-10-06T04:06:48.734Z,55.49
2018-10-06T04:07:27.141Z,56.81
2018-10-06T04:08:05.400Z,56.76
2018-10-06T04:08:43.311Z,56.73
2018-10-06T04:09:22.122Z,57.32
2018-10-06T04:10:01.028Z,57.01
2018-10-06T04:10:38.912Z,56.44
2018-10-06T04:11:16.714Z,56.63
2018-10-06T04:11:55.633Z,56.59
2018-10-06T04:12:33.597Z,56.08
2018-10-06T04:13:11.918Z,55.54
2018-10-06T04:13:49.736Z,56.17
2018-10-06T04:14:27.568Z,56.22
2018-10-06T04:15:05.508Z,56.97
2018-10-06T04:15:43.439Z,56.07
2018-10-06T04:16:21.362Z,56.17
2018-10-06T04:16:59.266Z,56.65
2018-10-06T04:17:37.316Z,56.76
2018-10-06T04:18:15.430Z,56.44
2018-10-06T04:18:53.302Z,55.02
2018-10-06T04:19:31.217Z,55.47
2018-10-06T04:20:09.293Z,54.76
2018-10-06T04:20:47.211Z,55.46
2018-10-06T04:21:25.184Z,55.22
2018-10-06T04:22:03.084Z,55.73
2018-10-06T04:22:40.933Z,56.40
2018-10-06T04:23:18.954Z,56.35
2018-10-06T04:23:56.865Z,56.05
2018-10-06T04:24:34.705Z,55.41
2018-10-06T04:25:13.353Z,54.96
2018-10-06T04:25:51.254Z,54.67
2018-10-06T04:26:29.124Z,54.23
2018-10-06T04:27:07.198Z,54.15
2018-10-06T04:27:45.064Z,54.07
2018-10-06T04:28:22.950Z,54.77
2018-10-06T04:29:00.922Z,54.75
2018-10-06T04:29:38.792Z,54.92
2018-10-06T04:30:16.944Z,54.83
2018-10-06T04:30:54.856Z,54.17
2018-10-06T04:31:32.797Z,54.74
2018-10-06T04:32:10.719Z,54.29
2018-10-06T04:32:48.635Z,54.84
2018-10-06T04:33:26.456Z,55.21
2018-10-06T04:34:04.565Z,55.03
2018-10-06T04:34:42.372Z,54.30
2018-10-06T04:35:20.445Z,54.47
2018-10-06T04:35:58.232Z,55.00
2018-10-06T04:36:36.195Z,54.85
2018-10-06T04:37:13.937Z,55.28
2018-10-06T04:37:51.909Z,55.01
2018-10-06T04:38:29.667Z,55.00
2018-10-06T04:39:10.206Z,55.25
2018-10-06T04:39:48.069Z,55.60
2018-10-06T04:40:25.909Z,55.76
2018-10-06T04:41:03.773Z,56.10
2018-10-06T04:41:41.597Z,55.50
2018-10-06T04:42:20.411Z,56.95
2018-10-06T04:42:58.206Z,55.78
2018-10-06T04:43:36.107Z,56.28
2018-10-06T04:44:15.123Z,57.22
2018-10-06T04:44:52.973Z,57.15
2018-10-06T04:45:30.777Z,56.75
2018-10-06T04:46:08.644Z,56.83
2018-10-06T04:46:46.404Z,56.25
2018-10-06T04:47:24.424Z,55.76
2018-10-06T04:48:02.893Z,55.68
2018-10-06T04:48:40.705Z,56.78
2018-10-06T04:49:18.700Z,55.69
2018-10-06T04:49:56.679Z,54.75
2018-10-06T04:50:34.516Z,54.35
2018-10-06T04:51:12.389Z,54.09
2018-10-06T04:51:50.282Z,53.50
2018-10-06T04:52:28.114Z,54.30
2018-10-06T04:53:06.065Z,55.06
2018-10-06T04:53:43.921Z,54.46
2018-10-06T04:54:21.945Z,54.98
2018-10-06T04:54:59.823Z,54.06
2018-10-06T04:55:37.692Z,54.16
2018-10-06T04:56:15.668Z,54.20
2018-10-06T04:56:53.514Z,54.14
2018-10-06T04:57:31.477Z,53.94
2018-10-06T04:58:09.361Z,53.17
2018-10-06T04:58:47.150Z,53.25
2018-10-06T04:59:25.228Z,52.64
2018-10-06T05:00:03.179Z,52.63
2018-10-06T05:00:41.201Z,52.58
2018-10-06T05:01:19.473Z,52.91
2018-10-06T05:01:57.302Z,52.60
2018-10-06T05:02:35.360Z,52.49
2018-10-06T05:03:13.304Z,52.30
2018-10-06T05:03:51.188Z,52.23
2018-10-06T05:04:29.051Z,52.51
2018-10-06T05:05:06.951Z,51.88
2018-10-06T05:05:44.789Z,51.17
2018-10-06T05:06:23.753Z,51.77
2018-10-06T05:07:01.679Z,51.23
2018-10-06T05:07:39.576Z,52.23
2018-10-06T05:08:17.437Z,51.69
2018-10-06T05:08:55.377Z,51.67
2018-10-06T05:09:34.411Z,50.91
2018-10-06T05:10:12.221Z,51.10
2018-10-06T05:10:50.260Z,50.48
2018-10-06T05:11:28.070Z,50.68
2018-10-06T05:12:05.831Z,51.73
2018-10-06T05:12:43.684Z,52.14
2018-10-06T05:13:30.448Z,52.26
2018-10-06T05:14:08.363Z,52.40
2018-10-06T05:14:46.289Z,51.74
2018-10-06T05:15:24.874Z,51.40
2018-10-06T05:16:02.741Z,50.96
2018-10-06T05:16:40.580Z,50.63
2018-10-06T05:17:18.437Z,50.49
2018-10-06T05:17:56.327Z,50.64
2018-10-06T05:18:34.332Z,51.35
2018-10-06T05:19:12.191Z,50.69
2018-10-06T05:19:50.097Z,51.26
2018-10-06T05:20:28.428Z,51.45
2018-10-06T05:21:06.192Z,51.32
2018-10-06T05:21:44.005Z,50.84
2018-10-06T05:22:21.830Z,51.44
2018-10-06T05:22:59.776Z,51.35
2018-10-06T05:23:37.694Z,50.29
2018-10-06T05:24:15.597Z,50.30
2018-10-06T05:24:53.510Z,50.97
2018-10-06T05:25:32.290Z,51.15
2018-10-06T05:26:11.971Z,51.23
2018-10-06T05:26:49.775Z,52.28
2018-10-06T05:27:27.679Z,51.92
2018-10-06T05:28:05.538Z,51.26
2018-10-06T05:28:43.332Z,51.90
2018-10-06T05:29:21.121Z,51.88
2018-10-06T05:29:59.041Z,52.14
2018-10-06T05:30:36.969Z,52.00
2018-10-06T05:31:14.916Z,52.42
2018-10-06T05:31:52.801Z,52.56
2018-10-06T05:32:30.649Z,52.36
2018-10-06T05:33:08.575Z,51.96
2018-10-06T05:33:46.624Z,52.80
2018-10-06T05:34:24.640Z,52.26
2018-10-06T05:35:02.612Z,53.37
2018-10-06T05:35:41.367Z,53.39
2018-10-06T05:36:19.335Z,53.50
2018-10-06T05:36:57.088Z,53.23
2018-10-06T05:37:35.007Z,52.88
2018-10-06T05:38:12.854Z,53.65
2018-10-06T05:38:50.857Z,53.59
2018-10-06T05:39:29.171Z,53.47
2018-10-06T05:40:06.960Z,53.08
2018-10-06T05:40:44.807Z,53.15
2018-10-06T05:41:22.616Z,53.67
2018-10-06T05:42:00.728Z,53.31
2018-10-06T05:42:38.810Z,53.18
2018-10-06T05:43:16.628Z,52.61
2018-10-06T05:43:56.329Z,53.66
2018-10-06T05:44:34.148Z,52.41
2018-10-06T05:45:12.112Z,52.14
2018-10-06T05:45:50.201Z,52.56
2018-10-06T05:46:28.030Z,51.72
2018-10-06T05:47:05.893Z,51.46
2018-10-06T05:47:43.789Z,51.15
2018-10-06T05:48:21.577Z,51.12
2018-10-06T05:48:59.433Z,50.56
2018-10-06T05:49:37.309Z,50.78
2018-10-06T05:50:15.219Z,51.02
2018-10-06T05:50:53.184Z,50.32
2018-10-06T05:51:30.973Z,49.61
2018-10-06T05:52:08.979Z,49.63
2018-10-06T05:52:46.903Z,49.76
2018-10-06T05:53:24.715Z,50.11
2018-10-06T05:54:03.680Z,51.02
2018-10-06T05:54:41.493Z,50.87
2018-10-06T05:55:19.316Z,50.02
2018-10-06T05:55:57.280Z,50.46
2018-10-06T05:56:35.511Z,52.20
2018-10-06T05:57:13.338Z,53.06
2018-10-06T05:57:51.161Z,53.44
2018-10-06T05:58:29.821Z,54.23
2018-10-06T05:59:07.700Z,54.78
2018-10-06T05:59:45.696Z,54.73
2018-10-06T06:00:24.654Z,55.85
2018-10-06T06:01:02.699Z,55.12
2018-10-06T06:01:40.455Z,55.81
2018-10-06T06:02:18.539Z,56.64
2018-10-06T06:02:56.480Z,56.75
2018-10-06T06:03:34.233Z,57.76
2018-10-06T06:04:12.078Z,57.98
2018-10-06T06:04:49.920Z,58.02
2018-10-06T06:05:29.136Z,57.75
2018-10-06T06:06:07.180Z,58.11
2018-10-06T06:06:45.051Z,59.18
2018-10-06T06:07:23.015Z,59.61
2018-10-06T06:08:00.928Z,59.95
2018-10-06T06:08:38.780Z,60.83
2018-10-06T06:09:16.725Z,60.13
2018-10-06T06:09:54.621Z,61.32
2018-10-06T06:10:32.524Z,60.56
2018-10-06T06:11:10.456Z,61.79
2018-10-06T06:11:49.263Z,61.85
2018-10-06T06:12:27.367Z,61.88
2018-10-06T06:13:05.092Z,62.04
2018-10-06T06:13:42.959Z,63.07
2018-10-06T06:14:20.819Z,62.57
2018-10-06T06:14:58.807Z,63.87
2018-10-06T06:15:39.802Z,63.56
2018-10-06T06:16:17.748Z,63.70
2018-10-06T06:16:55.534Z,64.09
2018-10-06T06:17:33.368Z,64.08
2018-10-06T06:18:11.219Z,64.71
2018-10-06T06:18:49.191Z,64.47
2018-10-06T06:19:27.061Z,64.91
2018-10-06T06:20:05.135Z,65.45
2018-10-06T06:20:42.948Z,65.95
2018-10-06T06:21:20.748Z,64.91
2018-10-06T06:21:58.807Z,65.20
2018-10-06T06:22:36.686Z,66.15
2018-10-06T06:23:14.616Z,66.08
2018-10-06T06:23:52.581Z,66.58
2018-10-06T06:24:30.585Z,67.03
2018-10-06T06:25:08.679Z,67.29
2018-10-06T06:25:46.805Z,66.85
2018-10-06T06:26:24.737Z,66.74
2018-10-06T06:27:02.640Z,67.28
2018-10-06T06:27:40.446Z,67.34
2018-10-06T06:28:18.265Z,66.68
2018-10-06T06:28:56.323Z,66.74
2018-10-06T06:29:34.278Z,66.86
2018-10-06T06:30:12.165Z,66.76
2018-10-06T06:30:50.136Z,66.67
2018-10-06T06:31:28.456Z,66.87
2018-10-06T06:32:07.383Z,66.85
2018-10-06T06:32:45.439Z,66.38
2018-10-06T06:33:23.238Z,67.22
2018-10-06T06:34:01.193Z,67.06
2018-10-06T06:34:39.171Z,67.95
2018-10-06T06:35:16.951Z,67.53
2018-10-06T06:35:54.820Z,67.39
2018-10-06T06:36:32.664Z,67.57
2018-10-06T06:37:10.706Z,67.53
2018-10-06T06:37:48.988Z,67.66
2018-10-06T06:38:26.920Z,67.72
2018-10-06T06:39:04.900Z,67.43
2018-10-06T06:39:42.777Z,67.53
2018-10-06T06:40:21.563Z,67.77
2018-10-06T06:40:59.377Z,67.64
2018-10-06T06:41:37.336Z,67.57
2018-10-06T06:42:15.224Z,67.43
2018-10-06T06:42:53.091Z,67.25
2018-10-06T06:43:31.128Z,67.23
2018-10-06T06:44:09.306Z,67.11
2018-10-06T06:44:47.319Z,67.36
2018-10-06T06:45:25.275Z,67.30
2018-10-06T06:46:03.913Z,67.29
2018-10-06T06:46:41.789Z,67.20
2018-10-06T06:47:19.629Z,67.24
2018-10-06T06:47:57.457Z,67.34
2018-10-06T06:48:35.354Z,67.03
2018-10-06T06:49:13.245Z,67.36
2018-10-06T06:49:51.087Z,67.29
2018-10-06T06:50:28.949Z,66.79
2018-10-06T06:51:07.106Z,66.45
2018-10-06T06:51:45.365Z,67.16
2018-10-06T06:52:23.393Z,66.44
2018-10-06T06:53:01.307Z,65.96
2018-10-06T06:53:39.292Z,66.54
2018-10-06T06:54:18.319Z,65.83
2018-10-06T06:54:56.515Z,66.14
2018-10-06T06:55:34.411Z,65.48
2018-10-06T06:56:12.300Z,65.94
2018-10-06T06:56:50.233Z,66.30
2018-10-06T06:57:28.094Z,65.48
2018-10-06T06:58:07.018Z,65.92
2018-10-06T06:58:45.093Z,64.97
2018-10-06T06:59:23.017Z,64.25
2018-10-06T07:00:01.000Z,64.94
2018-10-06T07:00:38.880Z,64.46
2018-10-06T07:01:16.708Z,63.66
2018-10-06T07:01:54.609Z,63.89
2018-10-06T07:02:33.408Z,63.63
2018-10-06T07:03:11.643Z,63.38
2018-10-06T07:03:49.581Z,64.10
2018-10-06T07:04:27.572Z,63.75
2018-10-06T07:05:05.534Z,63.70
2018-10-06T07:05:43.469Z,63.51
2018-10-06T07:06:22.360Z,63.13
2018-10-06T07:07:00.353Z,62.97
2018-10-06T07:07:39.128Z,63.95
2018-10-06T07:08:17.083Z,63.50
2018-10-06T07:08:56.256Z,62.92
2018-10-06T07:09:34.348Z,62.80
2018-10-06T07:10:12.267Z,63.69
2018-10-06T07:10:50.170Z,62.73
2018-10-06T07:11:28.138Z,63.22
2018-10-06T07:12:06.123Z,62.81
2018-10-06T07:12:44.257Z,62.12
2018-10-06T07:13:22.295Z,62.85
2018-10-06T07:14:00.094Z,61.66
2018-10-06T07:14:37.912Z,61.93
2018-10-06T07:15:15.716Z,62.62
2018-10-06T07:15:54.786Z,62.16
2018-10-06T07:16:32.631Z,62.66
2018-10-06T07:17:12.304Z,61.25
2018-10-06T07:17:50.220Z,61.30
2018-10-06T07:18:28.123Z,61.19
2018-10-06T07:19:06.067Z,62.01
2018-10-06T07:19:44.058Z,61.98
2018-10-06T07:20:22.014Z,61.99
2018-10-06T07:20:59.920Z,61.31
2018-10-06T07:21:37.774Z,61.86
2018-10-06T07:25:22.395Z,61.86
2018-10-06T07:26:00.286Z,61.29
2018-10-06T07:26:38.478Z,61.30
2018-10-06T07:27:17.286Z,62.37
2018-10-06T07:27:56.239Z,62.03
2018-10-06T07:28:34.153Z,63.02
2018-10-06T07:29:13.084Z,63.23
2018-10-06T07:29:50.998Z,62.91
2018-10-06T07:30:28.805Z,62.63
2018-10-06T07:31:07.053Z,62.42
2018-10-06T07:31:45.144Z,62.89
2018-10-06T07:32:23.046Z,62.45
2018-10-06T07:33:00.958Z,62.29
2018-10-06T07:33:38.967Z,61.41
2018-10-06T07:34:16.902Z,61.81
2018-10-06T07:34:54.813Z,61.12
2018-10-06T07:35:33.707Z,60.79
2018-10-06T07:36:11.818Z,60.73
2018-10-06T07:36:49.715Z,60.53
2018-10-06T07:37:27.742Z,59.99
2018-10-06T07:38:06.415Z,60.48
2018-10-06T07:38:44.829Z,59.73
2018-10-06T07:39:22.680Z,59.86
2018-10-06T07:40:01.241Z,59.62
2018-10-06T07:40:39.003Z,59.50
2018-10-06T07:41:18.005Z,59.37
2018-10-06T07:41:55.873Z,59.39
2018-10-06T07:42:33.712Z,59.30
2018-10-06T07:43:11.593Z,57.90
2018-10-06T07:43:49.621Z,58.28
2018-10-06T07:44:27.496Z,58.24
2018-10-06T07:45:05.429Z,57.79
2018-10-06T07:45:43.441Z,57.76
2018-10-06T07:46:21.321Z,57.27
2018-10-06T07:46:59.185Z,56.83
2018-10-06T07:47:37.118Z,56.92
2018-10-06T07:48:15.047Z,56.72
2018-10-06T07:48:53.185Z,57.63
2018-10-06T07:49:30.989Z,56.89
2018-10-06T07:50:10.291Z,57.06
2018-10-06T07:50:48.760Z,56.31
2018-10-06T07:51:27.052Z,56.93
2018-10-06T07:52:04.843Z,56.37
2018-10-06T07:52:42.896Z,56.15
2018-10-06T07:53:20.983Z,56.67
2018-10-06T07:53:59.019Z,57.29
2018-10-06T07:54:36.914Z,56.25
2018-10-06T07:55:14.743Z,57.00
2018-10-06T07:55:55.463Z,57.03
2018-10-06T07:56:33.451Z,56.37
2018-10-06T07:57:11.389Z,57.49
2018-10-06T07:57:50.254Z,57.16
2018-10-06T07:58:28.576Z,56.84
2018-10-06T07:59:07.537Z,57.63
2018-10-06T07:59:45.411Z,56.72
2018-10-06T08:00:23.440Z,57.37
2018-10-06T08:01:01.328Z,56.62
2018-10-06T08:01:40.462Z,57.41
2018-10-06T08:02:18.577Z,57.09
2018-10-06T08:02:57.425Z,57.08
2018-10-06T08:03:35.360Z,56.95
2018-10-06T08:04:13.443Z,57.69
2018-10-06T08:04:51.342Z,57.09
2018-10-06T08:05:29.319Z,57.35
2018-10-06T08:06:09.130Z,57.17
2018-10-06T08:06:46.969Z,57.64
2018-10-06T08:07:25.086Z,56.92
2018-10-06T08:08:03.705Z,56.80
2018-10-06T08:08:41.797Z,57.48
2018-10-06T08:09:19.721Z,56.89
2018-10-06T08:09:57.565Z,57.76
2018-10-06T08:10:37.101Z,57.45
2018-10-06T08:11:14.978Z,57.42
2018-10-06T08:11:52.769Z,57.16
2018-10-06T08:12:30.674Z,58.56
2018-10-06T08:13:07.682Z,58.32
2018-10-06T08:13:45.518Z,58.24
2018-10-06T08:14:23.331Z,58.21
2018-10-06T08:15:02.781Z,58.40